Pagina principale
METAR-TAF:

METAR-TAF

Aeroporti :

Schaffen

Diest, Belgio

latitudine: 51-00N, longitudine: 005-04E, altezza: 30 m

Osservazione

Il bollettino è stato emesso 42 minuti fa, alle 14:55 UTC
Vento 10 kt da est/nord-est
Temperature 22°C
Umidità 27%
Pressione 1021 hPa
Visibilità 10 km o più

METAR: EBDT 311455Z AUTO 07010KT 9999 SCT095/// BKN110/// BKN120/// 22/02 Q1021 BLU

Ora: 17:37 (15:37 UTC)


TAF: mancante

Osservazioni e previsioni meteorologiche di più di 4000 aeroporti (messaggi METAR e TAF).

Le stazioni disponibili sono rappresentate dai dischi gialli e rossi sulla carta.

Puntare il mouse per vedere il nome della stazione.

Clicca sopra per visualizzare le osservazioni e previsioni meteorologiche.

Per cambiare la mappa : fare clic sui pulsanti verdi con una croce nera per ingrandire, il pulsante verde con un trattino per diminuire, o sulla freccia verde per le mappe adiacenti.


METAR-TAF: